sensor_id;sensor_type;location;lat;lon;timestamp;P1;durP1;ratioP1;P2;durP2;ratioP2
80576;SDS011;69937;52.420;10.538;2024-02-26T00:00:43;7.25;;;6.85;;
80576;SDS011;69937;52.420;10.538;2024-02-26T00:05:43;8.55;;;7.90;;
80576;SDS011;69937;52.420;10.538;2024-02-26T00:10:44;7.72;;;7.22;;
80576;SDS011;69937;52.420;10.538;2024-02-26T00:15:44;7.45;;;6.88;;
80576;SDS011;69937;52.420;10.538;2024-02-26T00:20:45;8.95;;;8.45;;
80576;SDS011;69937;52.420;10.538;2024-02-26T00:25:45;8.13;;;7.68;;
80576;SDS011;69937;52.420;10.538;2024-02-26T00:30:46;7.88;;;7.35;;
80576;SDS011;69937;52.420;10.538;2024-02-26T00:35:47;9.32;;;8.77;;
80576;SDS011;69937;52.420;10.538;2024-02-26T00:40:48;7.53;;;6.68;;
80576;SDS011;69937;52.420;10.538;2024-02-26T00:45:49;8.45;;;7.95;;
80576;SDS011;69937;52.420;10.538;2024-02-26T00:50:49;8.65;;;8.07;;
80576;SDS011;69937;52.420;10.538;2024-02-26T00:55:50;7.68;;;7.25;;
80576;SDS011;69937;52.420;10.538;2024-02-26T01:00:51;8.43;;;7.93;;
80576;SDS011;69937;52.420;10.538;2024-02-26T01:05:51;9.15;;;8.45;;
80576;SDS011;69937;52.420;10.538;2024-02-26T01:10:52;8.40;;;7.90;;
80576;SDS011;69937;52.420;10.538;2024-02-26T01:15:52;9.23;;;8.73;;
80576;SDS011;69937;52.420;10.538;2024-02-26T01:20:53;8.98;;;8.48;;
80576;SDS011;69937;52.420;10.538;2024-02-26T01:25:54;7.80;;;7.20;;
80576;SDS011;69937;52.420;10.538;2024-02-26T01:30:54;8.05;;;7.60;;
80576;SDS011;69937;52.420;10.538;2024-02-26T01:35:55;8.02;;;7.53;;
80576;SDS011;69937;52.420;10.538;2024-02-26T01:40:56;6.45;;;6.05;;
80576;SDS011;69937;52.420;10.538;2024-02-26T01:45:56;8.90;;;7.85;;
80576;SDS011;69937;52.420;10.538;2024-02-26T01:50:57;7.07;;;6.68;;
80576;SDS011;69937;52.420;10.538;2024-02-26T01:55:58;8.57;;;8.07;;
80576;SDS011;69937;52.420;10.538;2024-02-26T02:00:58;7.75;;;7.05;;
80576;SDS011;69937;52.420;10.538;2024-02-26T02:06:00;8.18;;;7.68;;
80576;SDS011;69937;52.420;10.538;2024-02-26T02:11:01;9.73;;;9.00;;
80576;SDS011;69937;52.420;10.538;2024-02-26T02:16:02;7.50;;;7.10;;
80576;SDS011;69937;52.420;10.538;2024-02-26T02:21:03;8.77;;;8.27;;
80576;SDS011;69937;52.420;10.538;2024-02-26T02:26:04;9.90;;;8.98;;
80576;SDS011;69937;52.420;10.538;2024-02-26T02:31:05;9.45;;;8.82;;
80576;SDS011;69937;52.420;10.538;2024-02-26T02:36:05;8.15;;;7.57;;
80576;SDS011;69937;52.420;10.538;2024-02-26T02:41:09;9.52;;;8.93;;
80576;SDS011;69937;52.420;10.538;2024-02-26T02:46:10;7.63;;;7.03;;
80576;SDS011;69937;52.420;10.538;2024-02-26T02:51:13;8.45;;;7.95;;
80576;SDS011;69937;52.420;10.538;2024-02-26T02:56:14;8.70;;;8.10;;
80576;SDS011;69937;52.420;10.538;2024-02-26T03:01:14;7.32;;;6.93;;
80576;SDS011;69937;52.420;10.538;2024-02-26T03:06:15;7.50;;;7.00;;
80576;SDS011;69937;52.420;10.538;2024-02-26T03:11:15;7.32;;;6.82;;
80576;SDS011;69937;52.420;10.538;2024-02-26T03:16:16;8.80;;;8.30;;
80576;SDS011;69937;52.420;10.538;2024-02-26T03:21:17;7.70;;;7.25;;
80576;SDS011;69937;52.420;10.538;2024-02-26T03:26:18;7.40;;;7.00;;
80576;SDS011;69937;52.420;10.538;2024-02-26T03:31:19;8.23;;;7.72;;
80576;SDS011;69937;52.420;10.538;2024-02-26T03:36:21;8.50;;;7.95;;
80576;SDS011;69937;52.420;10.538;2024-02-26T03:41:22;9.23;;;8.73;;
80576;SDS011;69937;52.420;10.538;2024-02-26T03:46:22;8.35;;;7.75;;
80576;SDS011;69937;52.420;10.538;2024-02-26T03:51:23;9.40;;;8.80;;
80576;SDS011;69937;52.420;10.538;2024-02-26T03:56:24;9.68;;;8.85;;
80576;SDS011;69937;52.420;10.538;2024-02-26T04:01:25;10.02;;;9.30;;
80576;SDS011;69937;52.420;10.538;2024-02-26T04:06:25;10.18;;;8.82;;
80576;SDS011;69937;52.420;10.538;2024-02-26T04:11:26;8.77;;;8.18;;
80576;SDS011;69937;52.420;10.538;2024-02-26T04:16:26;7.18;;;6.70;;
80576;SDS011;69937;52.420;10.538;2024-02-26T04:21:27;8.30;;;7.72;;
80576;SDS011;69937;52.420;10.538;2024-02-26T04:26:28;9.13;;;8.50;;
80576;SDS011;69937;52.420;10.538;2024-02-26T04:31:30;9.40;;;8.80;;
80576;SDS011;69937;52.420;10.538;2024-02-26T04:36:32;9.13;;;8.25;;
80576;SDS011;69937;52.420;10.538;2024-02-26T04:41:33;9.60;;;8.90;;
80576;SDS011;69937;52.420;10.538;2024-02-26T04:46:33;9.52;;;8.70;;
80576;SDS011;69937;52.420;10.538;2024-02-26T04:51:34;9.75;;;9.15;;
80576;SDS011;69937;52.420;10.538;2024-02-26T04:56:35;8.40;;;7.88;;
80576;SDS011;69937;52.420;10.538;2024-02-26T05:01:35;9.93;;;9.30;;
80576;SDS011;69937;52.420;10.538;2024-02-26T05:06:36;9.40;;;8.80;;
80576;SDS011;69937;52.420;10.538;2024-02-26T05:11:38;10.55;;;9.77;;
80576;SDS011;69937;52.420;10.538;2024-02-26T05:16:38;9.85;;;9.20;;
80576;SDS011;69937;52.420;10.538;2024-02-26T05:21:39;10.05;;;9.32;;
80576;SDS011;69937;52.420;10.538;2024-02-26T05:26:40;9.63;;;9.02;;
80576;SDS011;69937;52.420;10.538;2024-02-26T05:31:44;8.50;;;8.00;;
80576;SDS011;69937;52.420;10.538;2024-02-26T05:36:44;9.20;;;8.57;;
80576;SDS011;69937;52.420;10.538;2024-02-26T05:41:45;8.90;;;8.25;;
80576;SDS011;69937;52.420;10.538;2024-02-26T05:46:45;9.93;;;9.23;;
80576;SDS011;69937;52.420;10.538;2024-02-26T05:51:46;8.77;;;8.18;;
80576;SDS011;69937;52.420;10.538;2024-02-26T05:56:46;9.50;;;8.90;;
80576;SDS011;69937;52.420;10.538;2024-02-26T06:01:47;8.60;;;7.90;;
80576;SDS011;69937;52.420;10.538;2024-02-26T06:06:48;9.18;;;8.38;;
80576;SDS011;69937;52.420;10.538;2024-02-26T06:11:49;8.57;;;8.02;;
80576;SDS011;69937;52.420;10.538;2024-02-26T06:16:49;10.63;;;9.73;;
80576;SDS011;69937;52.420;10.538;2024-02-26T06:21:50;8.50;;;7.97;;
80576;SDS011;69937;52.420;10.538;2024-02-26T06:26:51;8.02;;;7.32;;
80576;SDS011;69937;52.420;10.538;2024-02-26T06:31:51;9.20;;;8.68;;
80576;SDS011;69937;52.420;10.538;2024-02-26T06:36:52;7.57;;;7.00;;
80576;SDS011;69937;52.420;10.538;2024-02-26T06:41:52;8.15;;;7.60;;
80576;SDS011;69937;52.420;10.538;2024-02-26T06:47:00;9.32;;;8.57;;
80576;SDS011;69937;52.420;10.538;2024-02-26T06:52:01;10.07;;;9.18;;
80576;SDS011;69937;52.420;10.538;2024-02-26T06:57:02;8.48;;;7.88;;
80576;SDS011;69937;52.420;10.538;2024-02-26T07:02:03;7.80;;;7.30;;
80576;SDS011;69937;52.420;10.538;2024-02-26T07:07:03;7.78;;;7.18;;
80576;SDS011;69937;52.420;10.538;2024-02-26T07:12:04;8.65;;;8.05;;
80576;SDS011;69937;52.420;10.538;2024-02-26T07:17:05;8.70;;;8.00;;
80576;SDS011;69937;52.420;10.538;2024-02-26T07:22:05;8.98;;;8.48;;
80576;SDS011;69937;52.420;10.538;2024-02-26T07:27:06;7.63;;;7.00;;
80576;SDS011;69937;52.420;10.538;2024-02-26T07:32:06;8.77;;;8.15;;
80576;SDS011;69937;52.420;10.538;2024-02-26T07:37:07;7.93;;;7.28;;
80576;SDS011;69937;52.420;10.538;2024-02-26T07:42:08;6.50;;;6.10;;
80576;SDS011;69937;52.420;10.538;2024-02-26T07:47:09;9.55;;;8.85;;
80576;SDS011;69937;52.420;10.538;2024-02-26T07:52:09;8.18;;;7.57;;
80576;SDS011;69937;52.420;10.538;2024-02-26T07:57:10;7.68;;;7.07;;
80576;SDS011;69937;52.420;10.538;2024-02-26T08:02:11;8.18;;;7.57;;
80576;SDS011;69937;52.420;10.538;2024-02-26T08:07:11;8.82;;;6.03;;
80576;SDS011;69937;52.420;10.538;2024-02-26T08:12:12;6.90;;;6.40;;
80576;SDS011;69937;52.420;10.538;2024-02-26T08:17:12;7.72;;;6.65;;
80576;SDS011;69937;52.420;10.538;2024-02-26T08:22:13;9.32;;;8.75;;
80576;SDS011;69937;52.420;10.538;2024-02-26T08:27:16;7.03;;;6.10;;
80576;SDS011;69937;52.420;10.538;2024-02-26T08:32:17;6.53;;;6.03;;
80576;SDS011;69937;52.420;10.538;2024-02-26T08:37:18;7.40;;;5.60;;
80576;SDS011;69937;52.420;10.538;2024-02-26T08:42:18;5.95;;;5.53;;
80576;SDS011;69937;52.420;10.538;2024-02-26T08:47:19;6.38;;;5.90;;
80576;SDS011;69937;52.420;10.538;2024-02-26T08:52:19;6.05;;;5.55;;
80576;SDS011;69937;52.420;10.538;2024-02-26T08:57:20;7.63;;;6.03;;
80576;SDS011;69937;52.420;10.538;2024-02-26T09:02:20;5.97;;;5.57;;
80576;SDS011;69937;52.420;10.538;2024-02-26T09:07:21;6.97;;;6.47;;
80576;SDS011;69937;52.420;10.538;2024-02-26T09:12:22;5.57;;;5.18;;
80576;SDS011;69937;52.420;10.538;2024-02-26T09:17:23;8.75;;;6.15;;
80576;SDS011;69937;52.420;10.538;2024-02-26T09:22:23;6.53;;;6.03;;
80576;SDS011;69937;52.420;10.538;2024-02-26T09:27:24;6.10;;;5.63;;
80576;SDS011;69937;52.420;10.538;2024-02-26T09:32:24;6.28;;;5.53;;
80576;SDS011;69937;52.420;10.538;2024-02-26T09:37:25;5.28;;;4.70;;
80576;SDS011;69937;52.420;10.538;2024-02-26T09:42:26;5.82;;;5.32;;
80576;SDS011;69937;52.420;10.538;2024-02-26T09:47:28;6.10;;;5.60;;
80576;SDS011;69937;52.420;10.538;2024-02-26T09:52:31;7.10;;;6.30;;
80576;SDS011;69937;52.420;10.538;2024-02-26T09:57:34;6.78;;;6.18;;
80576;SDS011;69937;52.420;10.538;2024-02-26T10:02:36;6.05;;;5.57;;
80576;SDS011;69937;52.420;10.538;2024-02-26T10:07:38;6.30;;;5.68;;
80576;SDS011;69937;52.420;10.538;2024-02-26T10:12:39;5.63;;;5.28;;
80576;SDS011;69937;52.420;10.538;2024-02-26T10:17:40;8.40;;;4.40;;
80576;SDS011;69937;52.420;10.538;2024-02-26T10:22:41;5.72;;;5.22;;
80576;SDS011;69937;52.420;10.538;2024-02-26T10:27:42;6.10;;;5.50;;
80576;SDS011;69937;52.420;10.538;2024-02-26T10:32:43;4.90;;;4.43;;
80576;SDS011;69937;52.420;10.538;2024-02-26T10:37:45;6.25;;;5.65;;
80576;SDS011;69937;52.420;10.538;2024-02-26T10:42:46;5.78;;;5.18;;
80576;SDS011;69937;52.420;10.538;2024-02-26T10:47:47;6.40;;;5.80;;
80576;SDS011;69937;52.420;10.538;2024-02-26T10:52:47;5.80;;;5.38;;
80576;SDS011;69937;52.420;10.538;2024-02-26T10:57:50;4.75;;;4.35;;
80576;SDS011;69937;52.420;10.538;2024-02-26T11:02:52;5.20;;;4.70;;
80576;SDS011;69937;52.420;10.538;2024-02-26T11:07:53;4.78;;;4.35;;
80576;SDS011;69937;52.420;10.538;2024-02-26T11:12:55;5.43;;;4.78;;
80576;SDS011;69937;52.420;10.538;2024-02-26T11:17:59;5.07;;;4.53;;
80576;SDS011;69937;52.420;10.538;2024-02-26T11:23:01;5.68;;;5.13;;
80576;SDS011;69937;52.420;10.538;2024-02-26T11:28:03;5.28;;;4.18;;
80576;SDS011;69937;52.420;10.538;2024-02-26T11:33:07;4.93;;;4.50;;
80576;SDS011;69937;52.420;10.538;2024-02-26T11:38:08;6.75;;;4.95;;
80576;SDS011;69937;52.420;10.538;2024-02-26T11:43:23;5.68;;;5.13;;
80576;SDS011;69937;52.420;10.538;2024-02-26T11:48:43;6.65;;;4.95;;
80576;SDS011;69937;52.420;10.538;2024-02-26T11:53:46;6.07;;;5.28;;
80576;SDS011;69937;52.420;10.538;2024-02-26T12:04:01;6.05;;;4.65;;
80576;SDS011;69937;52.420;10.538;2024-02-26T12:09:02;7.10;;;4.53;;
80576;SDS011;69937;52.420;10.538;2024-02-26T12:14:02;5.80;;;4.88;;
80576;SDS011;69937;52.420;10.538;2024-02-26T12:19:03;6.00;;;4.65;;
80576;SDS011;69937;52.420;10.538;2024-02-26T12:24:12;5.63;;;4.70;;
80576;SDS011;69937;52.420;10.538;2024-02-26T12:29:14;6.88;;;5.55;;
80576;SDS011;69937;52.420;10.538;2024-02-26T12:34:15;6.32;;;5.65;;
80576;SDS011;69937;52.420;10.538;2024-02-26T12:39:16;7.30;;;4.88;;
80576;SDS011;69937;52.420;10.538;2024-02-26T12:44:17;5.95;;;5.13;;
80576;SDS011;69937;52.420;10.538;2024-02-26T12:49:18;8.75;;;5.28;;
80576;SDS011;69937;52.420;10.538;2024-02-26T12:54:18;7.78;;;4.70;;
80576;SDS011;69937;52.420;10.538;2024-02-26T12:59:19;6.05;;;4.93;;
80576;SDS011;69937;52.420;10.538;2024-02-26T13:04:20;4.45;;;4.07;;
80576;SDS011;69937;52.420;10.538;2024-02-26T13:09:20;4.47;;;4.07;;
80576;SDS011;69937;52.420;10.538;2024-02-26T13:14:22;5.97;;;5.22;;
80576;SDS011;69937;52.420;10.538;2024-02-26T13:19:23;4.95;;;4.47;;
80576;SDS011;69937;52.420;10.538;2024-02-26T13:24:24;9.38;;;6.30;;
80576;SDS011;69937;52.420;10.538;2024-02-26T13:29:25;5.95;;;5.32;;
80576;SDS011;69937;52.420;10.538;2024-02-26T13:34:26;7.13;;;5.35;;
80576;SDS011;69937;52.420;10.538;2024-02-26T13:39:27;9.57;;;4.90;;
80576;SDS011;69937;52.420;10.538;2024-02-26T13:44:28;6.20;;;4.85;;
80576;SDS011;69937;52.420;10.538;2024-02-26T13:49:29;5.88;;;4.60;;
80576;SDS011;69937;52.420;10.538;2024-02-26T13:54:29;7.40;;;5.22;;
80576;SDS011;69937;52.420;10.538;2024-02-26T13:59:30;6.45;;;4.85;;
80576;SDS011;69937;52.420;10.538;2024-02-26T14:04:30;5.95;;;4.68;;
80576;SDS011;69937;52.420;10.538;2024-02-26T14:09:31;10.40;;;5.03;;
80576;SDS011;69937;52.420;10.538;2024-02-26T14:14:32;7.22;;;5.25;;
80576;SDS011;69937;52.420;10.538;2024-02-26T14:19:35;5.20;;;4.60;;
80576;SDS011;69937;52.420;10.538;2024-02-26T14:24:35;6.68;;;5.63;;
80576;SDS011;69937;52.420;10.538;2024-02-26T14:29:36;5.88;;;5.32;;
80576;SDS011;69937;52.420;10.538;2024-02-26T14:34:39;7.90;;;5.35;;
80576;SDS011;69937;52.420;10.538;2024-02-26T14:39:40;5.95;;;4.80;;
80576;SDS011;69937;52.420;10.538;2024-02-26T14:44:41;7.65;;;5.75;;
80576;SDS011;69937;52.420;10.538;2024-02-26T14:49:41;7.35;;;5.40;;
80576;SDS011;69937;52.420;10.538;2024-02-26T14:54:42;6.68;;;5.25;;
80576;SDS011;69937;52.420;10.538;2024-02-26T14:59:43;6.93;;;4.93;;
80576;SDS011;69937;52.420;10.538;2024-02-26T15:04:44;7.30;;;5.32;;
80576;SDS011;69937;52.420;10.538;2024-02-26T15:09:45;5.63;;;5.10;;
80576;SDS011;69937;52.420;10.538;2024-02-26T15:14:45;7.45;;;6.53;;
80576;SDS011;69937;52.420;10.538;2024-02-26T15:19:46;7.40;;;5.07;;
80576;SDS011;69937;52.420;10.538;2024-02-26T15:24:47;7.70;;;5.65;;
80576;SDS011;69937;52.420;10.538;2024-02-26T15:29:47;6.35;;;5.45;;
80576;SDS011;69937;52.420;10.538;2024-02-26T15:34:48;5.82;;;4.40;;
80576;SDS011;69937;52.420;10.538;2024-02-26T15:39:48;5.15;;;4.65;;
80576;SDS011;69937;52.420;10.538;2024-02-26T15:44:49;4.97;;;4.18;;
80576;SDS011;69937;52.420;10.538;2024-02-26T15:49:49;6.78;;;5.32;;
80576;SDS011;69937;52.420;10.538;2024-02-26T15:54:50;5.07;;;4.28;;
80576;SDS011;69937;52.420;10.538;2024-02-26T15:59:52;4.95;;;4.40;;
80576;SDS011;69937;52.420;10.538;2024-02-26T16:04:53;6.40;;;4.55;;
80576;SDS011;69937;52.420;10.538;2024-02-26T16:09:54;4.43;;;3.97;;
80576;SDS011;69937;52.420;10.538;2024-02-26T16:14:55;6.40;;;4.80;;
80576;SDS011;69937;52.420;10.538;2024-02-26T16:19:55;4.60;;;4.20;;
80576;SDS011;69937;52.420;10.538;2024-02-26T16:24:56;5.03;;;4.05;;
80576;SDS011;69937;52.420;10.538;2024-02-26T16:29:56;6.15;;;5.13;;
80576;SDS011;69937;52.420;10.538;2024-02-26T16:34:58;4.05;;;3.72;;
80576;SDS011;69937;52.420;10.538;2024-02-26T16:40:00;4.25;;;3.80;;
80576;SDS011;69937;52.420;10.538;2024-02-26T16:45:04;4.82;;;4.43;;
80576;SDS011;69937;52.420;10.538;2024-02-26T16:50:05;4.63;;;3.28;;
80576;SDS011;69937;52.420;10.538;2024-02-26T16:55:06;4.38;;;3.97;;
80576;SDS011;69937;52.420;10.538;2024-02-26T17:00:08;4.65;;;3.72;;
80576;SDS011;69937;52.420;10.538;2024-02-26T17:05:12;5.70;;;3.72;;
80576;SDS011;69937;52.420;10.538;2024-02-26T17:10:13;4.03;;;3.63;;
80576;SDS011;69937;52.420;10.538;2024-02-26T17:15:15;3.75;;;3.50;;
80576;SDS011;69937;52.420;10.538;2024-02-26T17:20:16;3.72;;;3.42;;
80576;SDS011;69937;52.420;10.538;2024-02-26T17:25:17;3.72;;;3.47;;
80576;SDS011;69937;52.420;10.538;2024-02-26T17:30:18;3.78;;;3.47;;
80576;SDS011;69937;52.420;10.538;2024-02-26T17:35:19;3.28;;;3.08;;
80576;SDS011;69937;52.420;10.538;2024-02-26T17:40:19;3.55;;;3.25;;
80576;SDS011;69937;52.420;10.538;2024-02-26T17:45:20;4.03;;;3.72;;
80576;SDS011;69937;52.420;10.538;2024-02-26T17:50:22;3.78;;;3.47;;
80576;SDS011;69937;52.420;10.538;2024-02-26T17:55:23;4.22;;;2.95;;
80576;SDS011;69937;52.420;10.538;2024-02-26T18:00:24;3.33;;;2.60;;
80576;SDS011;69937;52.420;10.538;2024-02-26T18:05:27;3.85;;;3.40;;
80576;SDS011;69937;52.420;10.538;2024-02-26T18:10:27;3.47;;;3.28;;
80576;SDS011;69937;52.420;10.538;2024-02-26T18:15:28;3.60;;;3.30;;
80576;SDS011;69937;52.420;10.538;2024-02-26T18:20:29;3.33;;;3.13;;
80576;SDS011;69937;52.420;10.538;2024-02-26T18:25:29;3.05;;;2.75;;
80576;SDS011;69937;52.420;10.538;2024-02-26T18:30:31;4.10;;;3.80;;
80576;SDS011;69937;52.420;10.538;2024-02-26T18:35:31;3.72;;;3.53;;
80576;SDS011;69937;52.420;10.538;2024-02-26T18:40:32;4.78;;;3.33;;
80576;SDS011;69937;52.420;10.538;2024-02-26T18:45:32;4.40;;;4.00;;
80576;SDS011;69937;52.420;10.538;2024-02-26T18:50:33;3.83;;;3.50;;
80576;SDS011;69937;52.420;10.538;2024-02-26T18:55:34;4.85;;;4.55;;
80576;SDS011;69937;52.420;10.538;2024-02-26T19:00:36;4.32;;;3.92;;
80576;SDS011;69937;52.420;10.538;2024-02-26T19:05:37;3.95;;;3.55;;
80576;SDS011;69937;52.420;10.538;2024-02-26T19:10:38;4.82;;;4.53;;
80576;SDS011;69937;52.420;10.538;2024-02-26T19:15:38;5.30;;;4.80;;
80576;SDS011;69937;52.420;10.538;2024-02-26T19:20:41;5.65;;;5.15;;
80576;SDS011;69937;52.420;10.538;2024-02-26T19:25:42;4.38;;;3.97;;
80576;SDS011;69937;52.420;10.538;2024-02-26T19:30:42;4.40;;;4.10;;
80576;SDS011;69937;52.420;10.538;2024-02-26T19:35:43;4.63;;;4.32;;
80576;SDS011;69937;52.420;10.538;2024-02-26T19:40:48;4.03;;;3.72;;
80576;SDS011;69937;52.420;10.538;2024-02-26T19:45:48;4.03;;;3.63;;
80576;SDS011;69937;52.420;10.538;2024-02-26T19:50:49;4.57;;;4.18;;
80576;SDS011;69937;52.420;10.538;2024-02-26T19:55:49;5.07;;;4.65;;
80576;SDS011;69937;52.420;10.538;2024-02-26T20:00:50;6.15;;;5.65;;
80576;SDS011;69937;52.420;10.538;2024-02-26T20:05:50;4.32;;;3.92;;
80576;SDS011;69937;52.420;10.538;2024-02-26T20:10:51;5.75;;;5.20;;
80576;SDS011;69937;52.420;10.538;2024-02-26T20:15:52;5.43;;;4.95;;
80576;SDS011;69937;52.420;10.538;2024-02-26T20:20:52;5.47;;;4.97;;
80576;SDS011;69937;52.420;10.538;2024-02-26T20:25:53;5.80;;;5.30;;
80576;SDS011;69937;52.420;10.538;2024-02-26T20:30:57;4.75;;;4.32;;
80576;SDS011;69937;52.420;10.538;2024-02-26T20:35:57;6.50;;;5.18;;
80576;SDS011;69937;52.420;10.538;2024-02-26T20:40:58;6.10;;;5.53;;
80576;SDS011;69937;52.420;10.538;2024-02-26T20:45:58;7.18;;;6.57;;
80576;SDS011;69937;52.420;10.538;2024-02-26T20:50:59;5.95;;;5.35;;
80576;SDS011;69937;52.420;10.538;2024-02-26T20:56:00;7.45;;;6.85;;
80576;SDS011;69937;52.420;10.538;2024-02-26T21:01:00;6.30;;;5.43;;
80576;SDS011;69937;52.420;10.538;2024-02-26T21:06:01;7.22;;;6.22;;
80576;SDS011;69937;52.420;10.538;2024-02-26T21:11:03;8.98;;;6.65;;
80576;SDS011;69937;52.420;10.538;2024-02-26T21:16:04;12.20;;;7.05;;
80576;SDS011;69937;52.420;10.538;2024-02-26T21:21:06;8.02;;;6.80;;
80576;SDS011;69937;52.420;10.538;2024-02-26T21:26:06;8.85;;;7.15;;
80576;SDS011;69937;52.420;10.538;2024-02-26T21:31:07;8.57;;;6.93;;
80576;SDS011;69937;52.420;10.538;2024-02-26T21:36:09;6.70;;;6.05;;
80576;SDS011;69937;52.420;10.538;2024-02-26T21:41:09;7.93;;;7.18;;
80576;SDS011;69937;52.420;10.538;2024-02-26T21:46:10;9.15;;;7.25;;
80576;SDS011;69937;52.420;10.538;2024-02-26T21:51:11;8.65;;;7.82;;
80576;SDS011;69937;52.420;10.538;2024-02-26T21:56:11;11.90;;;8.57;;
80576;SDS011;69937;52.420;10.538;2024-02-26T22:01:12;8.98;;;8.07;;
80576;SDS011;69937;52.420;10.538;2024-02-26T22:06:12;13.68;;;7.53;;
80576;SDS011;69937;52.420;10.538;2024-02-26T22:11:13;10.40;;;8.45;;
80576;SDS011;69937;52.420;10.538;2024-02-26T22:16:13;11.77;;;9.10;;
80576;SDS011;69937;52.420;10.538;2024-02-26T22:21:14;10.60;;;8.32;;
80576;SDS011;69937;52.420;10.538;2024-02-26T22:26:15;9.52;;;8.10;;
80576;SDS011;69937;52.420;10.538;2024-02-26T22:31:15;12.55;;;9.73;;
80576;SDS011;69937;52.420;10.538;2024-02-26T22:36:17;10.65;;;9.15;;
80576;SDS011;69937;52.420;10.538;2024-02-26T22:41:19;14.63;;;10.80;;
80576;SDS011;69937;52.420;10.538;2024-02-26T22:46:21;12.10;;;8.85;;
80576;SDS011;69937;52.420;10.538;2024-02-26T22:51:22;12.93;;;9.38;;
80576;SDS011;69937;52.420;10.538;2024-02-26T22:56:23;15.50;;;10.20;;
80576;SDS011;69937;52.420;10.538;2024-02-26T23:01:24;13.10;;;11.27;;
80576;SDS011;69937;52.420;10.538;2024-02-26T23:06:24;15.40;;;11.35;;
80576;SDS011;69937;52.420;10.538;2024-02-26T23:11:25;14.68;;;9.30;;
80576;SDS011;69937;52.420;10.538;2024-02-26T23:16:25;14.70;;;9.40;;
80576;SDS011;69937;52.420;10.538;2024-02-26T23:21:27;14.48;;;10.98;;
80576;SDS011;69937;52.420;10.538;2024-02-26T23:26:28;15.30;;;9.82;;
80576;SDS011;69937;52.420;10.538;2024-02-26T23:31:28;13.30;;;9.95;;
80576;SDS011;69937;52.420;10.538;2024-02-26T23:36:29;14.38;;;9.98;;
80576;SDS011;69937;52.420;10.538;2024-02-26T23:41:29;16.55;;;11.32;;
80576;SDS011;69937;52.420;10.538;2024-02-26T23:46:32;12.90;;;9.55;;
80576;SDS011;69937;52.420;10.538;2024-02-26T23:51:36;16.05;;;11.77;;
80576;SDS011;69937;52.420;10.538;2024-02-26T23:56:36;12.98;;;9.95;;
